CIC weather

Chico Municipal Airport
Chico, California, United States

Public forecast

Using degrees Fahrenheit for public forecast. Weather courtesy of forecast.io.

METAR (pilot weather report)

Retrieved 2019/08/21 06:35 UTC (0 seconds ago):

KCIC 210635Z AUTO 00000KT 10SM CLR 25/12 A2994 RMK AO1

TAF (pilot weather forecast)

Closest forecast is Red Bluff Municipal Airport, 28.0 nm (51.8 km) NW. Retrieved 2019/08/21 06:39 UTC (0 seconds ago):

TAF KRBL 210537Z 2106/2206 VRB04KT P6SM SCT100 BKN250 FM212100 16008KT P6SM BKN150 OVC250